createdAt,value
2022-10-28T00:01:04.056Z,102544.75
2022-10-28T00:03:31.223Z,102547.50
2022-10-28T00:06:03.617Z,102543.03
2022-10-28T00:08:31.665Z,102545.75
2022-10-28T00:11:12.347Z,102542.44
2022-10-28T00:13:40.507Z,102545.25
2022-10-28T00:16:13.886Z,102541.72
2022-10-28T00:18:42.087Z,102545.25
2022-10-28T00:21:12.624Z,102543.25
2022-10-28T00:23:40.343Z,102541.53
2022-10-28T00:26:16.874Z,102542.31
2022-10-28T00:28:46.676Z,102552.00
2022-10-28T00:31:16.219Z,102548.50
2022-10-28T00:33:43.873Z,102545.03
2022-10-28T00:36:20.753Z,102536.84
2022-10-28T00:38:50.650Z,102543.97
2022-10-28T00:41:20.613Z,102543.19
2022-10-28T00:43:51.430Z,102544.03
2022-10-28T00:46:32.650Z,102542.19
2022-10-28T00:49:04.342Z,102547.69
2022-10-28T00:51:35.516Z,102543.19
2022-10-28T00:54:05.385Z,102542.38
2022-10-28T00:56:36.944Z,102544.25
2022-10-28T00:59:09.407Z,102538.97
2022-10-28T01:01:36.839Z,102547.97
2022-10-28T01:04:04.175Z,102547.28
2022-10-28T01:06:31.526Z,102545.56
2022-10-28T01:09:00.108Z,102541.19
2022-10-28T01:11:35.242Z,102537.53
2022-10-28T01:14:10.175Z,102540.59
2022-10-28T01:16:55.141Z,102525.72
2022-10-28T01:19:43.797Z,102534.59
2022-10-28T01:22:21.090Z,102534.88
2022-10-28T01:25:09.836Z,102538.66
2022-10-28T01:28:04.523Z,102533.53
2022-10-28T01:31:08.981Z,102530.03
2022-10-28T01:33:39.988Z,102528.38
2022-10-28T01:36:12.754Z,102519.72
2022-10-28T01:38:47.279Z,102525.97
2022-10-28T01:41:33.506Z,102527.88
2022-10-28T01:44:06.898Z,102523.69
2022-10-28T01:46:56.673Z,102521.91
2022-10-28T01:49:32.322Z,102522.75
2022-10-28T01:52:03.660Z,102524.41
2022-10-28T01:54:34.095Z,102522.75
2022-10-28T01:57:04.299Z,102517.31
2022-10-28T01:59:34.266Z,102514.59
2022-10-28T02:04:33.399Z,102516.41
2022-10-28T02:07:01.238Z,102519.09
2022-10-28T02:09:28.275Z,102529.72
2022-10-28T02:12:07.548Z,102526.47
2022-10-28T02:14:59.050Z,102521.97
2022-10-28T02:17:38.394Z,102517.59
2022-10-28T02:20:22.971Z,102517.69
2022-10-28T02:22:58.932Z,102512.44
2022-10-28T02:25:32.938Z,102514.03
2022-10-28T02:28:06.378Z,102516.00
2022-10-28T02:30:37.173Z,102514.03
2022-10-28T02:33:10.479Z,102512.44
2022-10-28T02:35:40.911Z,102512.44
2022-10-28T02:38:14.154Z,102510.69
2022-10-28T02:40:46.080Z,102507.28
2022-10-28T02:43:17.827Z,102516.16
2022-10-28T02:45:48.684Z,102506.78
2022-10-28T02:48:36.671Z,102510.38
2022-10-28T02:51:32.579Z,102508.59
2022-10-28T02:54:06.027Z,102500.78
2022-10-28T02:56:40.045Z,102510.47
2022-10-28T02:59:12.375Z,102500.16
2022-10-28T03:01:40.339Z,102511.66
2022-10-28T03:04:07.795Z,102505.72
2022-10-28T03:06:34.894Z,102506.09
2022-10-28T03:09:02.052Z,102516.84
2022-10-28T03:11:29.176Z,102507.13
2022-10-28T03:13:56.313Z,102520.53
2022-10-28T03:16:23.575Z,102518.88
2022-10-28T03:18:50.715Z,102512.63
2022-10-28T03:21:17.873Z,102506.69
2022-10-28T03:23:44.961Z,102507.56
2022-10-28T03:26:12.093Z,102511.94
2022-10-28T03:28:39.224Z,102516.31
2022-10-28T03:31:06.354Z,102507.63
2022-10-28T03:33:33.513Z,102515.66
2022-10-28T03:36:00.701Z,102512.19
2022-10-28T03:38:27.800Z,102513.91
2022-10-28T03:40:55.021Z,102525.28
2022-10-28T03:43:22.164Z,102519.13
2022-10-28T03:45:49.362Z,102516.47
2022-10-28T03:48:16.481Z,102524.53
2022-10-28T03:50:43.610Z,102522.94
2022-10-28T03:53:10.781Z,102528.09
2022-10-28T03:55:37.939Z,102524.72
2022-10-28T03:58:05.073Z,102516.94
2022-10-28T04:00:32.231Z,102514.34
2022-10-28T04:02:59.334Z,102509.91
2022-10-28T04:05:26.427Z,102516.94
2022-10-28T04:07:54.127Z,102521.44
2022-10-28T04:10:21.383Z,102521.44
2022-10-28T04:12:48.466Z,102512.63
2022-10-28T04:15:15.583Z,102520.88
2022-10-28T04:17:42.723Z,102511.94
2022-10-28T04:20:10.103Z,102514.53
2022-10-28T04:22:37.251Z,102519.97
2022-10-28T04:25:04.894Z,102512.84
2022-10-28T04:27:32.056Z,102518.22
2022-10-28T04:29:59.211Z,102521.66
2022-10-28T04:32:26.345Z,102526.13
2022-10-28T04:34:53.475Z,102519.13
2022-10-28T04:37:20.821Z,102522.88
2022-10-28T04:39:48.273Z,102517.53
2022-10-28T04:42:16.727Z,102521.84
2022-10-28T04:44:43.810Z,102523.75
2022-10-28T04:47:10.931Z,102521.88
2022-10-28T04:49:38.903Z,102523.63
2022-10-28T04:52:06.298Z,102521.97
2022-10-28T04:54:33.508Z,102516.56
2022-10-28T04:57:00.623Z,102517.47
2022-10-28T04:59:27.950Z,102516.59
2022-10-28T05:01:55.166Z,102523.56
2022-10-28T05:04:22.398Z,102513.75
2022-10-28T05:06:49.762Z,102520.13
2022-10-28T05:09:16.889Z,102519.38
2022-10-28T05:11:44.207Z,102514.13
2022-10-28T05:14:11.289Z,102504.28
2022-10-28T05:16:38.387Z,102511.41
2022-10-28T05:19:05.496Z,102506.25
2022-10-28T05:21:32.672Z,102501.78
2022-10-28T05:23:59.767Z,102505.25
2022-10-28T05:26:26.884Z,102501.78
2022-10-28T05:28:54.006Z,102499.00
2022-10-28T05:31:21.094Z,102499.00
2022-10-28T05:33:48.203Z,102496.25
2022-10-28T05:36:15.343Z,102496.41
2022-10-28T05:38:45.315Z,102499.06
2022-10-28T05:41:12.675Z,102506.09
2022-10-28T05:43:39.821Z,102505.28
2022-10-28T05:46:06.938Z,102498.16
2022-10-28T05:48:34.137Z,102510.56
2022-10-28T05:51:01.283Z,102498.09
2022-10-28T05:53:28.382Z,102503.28
2022-10-28T05:55:55.462Z,102505.19
2022-10-28T05:58:22.547Z,102511.34
2022-10-28T06:00:49.712Z,102509.00
2022-10-28T06:03:16.948Z,102512.41
2022-10-28T06:05:45.661Z,102510.59
2022-10-28T06:08:13.504Z,102514.88
2022-10-28T06:10:41.662Z,102518.16
2022-10-28T06:13:08.080Z,102520.69
2022-10-28T06:15:35.200Z,102522.41
2022-10-28T06:18:02.400Z,102527.78
2022-10-28T06:20:29.491Z,102524.16
2022-10-28T06:22:56.672Z,102531.81
2022-10-28T06:25:25.218Z,102530.03
2022-10-28T06:27:56.707Z,102527.31
2022-10-28T06:30:25.953Z,102531.72
2022-10-28T06:32:56.267Z,102527.75
2022-10-28T06:35:23.507Z,102525.97
2022-10-28T06:37:56.937Z,102545.06
2022-10-28T06:40:25.124Z,102545.31
2022-10-28T06:43:03.963Z,102546.72
2022-10-28T06:45:32.982Z,102548.13
2022-10-28T06:48:04.321Z,102546.22
2022-10-28T06:50:33.731Z,102552.88
2022-10-28T06:53:01.119Z,102542.03
2022-10-28T06:55:28.900Z,102547.09
2022-10-28T06:58:00.805Z,102554.78
2022-10-28T07:03:02.173Z,102550.44
2022-10-28T07:05:29.502Z,102554.50
2022-10-28T07:07:56.947Z,102558.56
2022-10-28T07:10:24.123Z,102563.31
2022-10-28T07:12:53.296Z,102572.81
2022-10-28T07:15:20.896Z,102573.28
2022-10-28T07:17:59.129Z,102570.84
2022-10-28T07:20:27.904Z,102570.38
2022-10-28T07:23:02.421Z,102569.03
2022-10-28T07:25:30.795Z,102579.19
2022-10-28T07:27:59.167Z,102573.50
2022-10-28T07:30:28.091Z,102572.84
2022-10-28T07:32:55.898Z,102574.84
2022-10-28T07:35:23.361Z,102578.56
2022-10-28T07:37:50.483Z,102582.38
2022-10-28T07:40:17.994Z,102580.75
2022-10-28T07:42:45.206Z,102579.97
2022-10-28T07:45:12.593Z,102590.88
2022-10-28T07:47:39.957Z,102589.97
2022-10-28T07:50:08.209Z,102588.31
2022-10-28T07:52:36.763Z,102589.47
2022-10-28T07:55:05.722Z,102591.84
2022-10-28T07:57:34.923Z,102586.72
2022-10-28T08:00:02.298Z,102586.88
2022-10-28T08:02:38.003Z,102591.97
2022-10-28T08:05:05.727Z,102588.56
2022-10-28T08:07:36.212Z,102588.03
2022-10-28T08:10:07.388Z,102587.06
2022-10-28T08:12:34.536Z,102580.47
2022-10-28T08:15:02.631Z,102591.94
2022-10-28T08:17:30.260Z,102584.03
2022-10-28T08:19:57.951Z,102586.81
2022-10-28T08:22:25.195Z,102583.19
2022-10-28T08:24:52.299Z,102587.09
2022-10-28T08:27:19.411Z,102582.94
2022-10-28T08:29:46.700Z,102581.25
2022-10-28T08:32:13.955Z,102580.38
2022-10-28T08:34:43.552Z,102582.28
2022-10-28T08:37:11.171Z,102581.09
2022-10-28T08:39:38.335Z,102584.34
2022-10-28T08:42:22.596Z,102584.41
2022-10-28T08:45:02.972Z,102582.63
2022-10-28T08:47:38.828Z,102588.44
2022-10-28T08:50:13.528Z,102589.66
2022-10-28T08:52:50.709Z,102582.84
2022-10-28T08:55:44.386Z,102587.41
2022-10-28T08:58:25.289Z,102583.41
2022-10-28T09:00:59.980Z,102585.72
2022-10-28T09:03:33.284Z,102581.47
2022-10-28T09:06:05.509Z,102581.84
2022-10-28T09:08:51.769Z,102589.16
2022-10-28T09:11:27.192Z,102581.75
2022-10-28T09:14:19.122Z,102577.03
2022-10-28T09:16:49.133Z,102574.78
2022-10-28T09:19:37.451Z,102574.78
2022-10-28T09:22:39.225Z,102581.69
2022-10-28T09:25:48.639Z,102581.13
2022-10-28T09:28:24.617Z,102582.44
2022-10-28T09:31:08.465Z,102580.25
2022-10-28T09:33:35.562Z,102585.19
2022-10-28T09:36:11.132Z,102581.69
2022-10-28T09:38:38.993Z,102592.97
2022-10-28T09:41:36.341Z,102592.72
2022-10-28T09:44:15.515Z,102579.59
2022-10-28T09:46:46.904Z,102578.19
2022-10-28T09:49:41.060Z,102583.25
2022-10-28T09:52:16.191Z,102589.50
2022-10-28T09:54:51.476Z,102584.69
2022-10-28T09:57:20.448Z,102584.75
2022-10-28T09:59:47.776Z,102588.94
2022-10-28T10:02:27.061Z,102585.84
2022-10-28T10:04:59.832Z,102586.69
2022-10-28T10:07:37.518Z,102587.88
2022-10-28T10:10:17.881Z,102581.22
2022-10-28T10:12:48.693Z,102585.63
2022-10-28T10:15:32.707Z,102583.94
2022-10-28T10:18:02.242Z,102584.28
2022-10-28T10:20:55.880Z,102575.31
2022-10-28T10:23:30.362Z,102564.28
2022-10-28T10:26:01.562Z,102572.25
2022-10-28T10:28:29.537Z,102566.25
2022-10-28T10:30:59.217Z,102567.72
2022-10-28T10:33:34.602Z,102563.94
2022-10-28T10:36:14.281Z,102563.06
2022-10-28T10:38:50.661Z,102549.47
2022-10-28T10:41:35.369Z,102548.44
2022-10-28T10:44:25.479Z,102546.50
2022-10-28T10:47:03.453Z,102543.66
2022-10-28T10:49:35.127Z,102541.59
2022-10-28T10:52:07.832Z,102542.53
2022-10-28T10:54:37.481Z,102537.44
2022-10-28T10:57:09.697Z,102530.06
2022-10-28T10:59:37.903Z,102534.44
2022-10-28T11:02:22.683Z,102530.13
2022-10-28T11:04:59.597Z,102529.56
2022-10-28T11:07:28.291Z,102527.34
2022-10-28T11:09:55.791Z,102529.09
2022-10-28T11:12:35.593Z,102510.13
2022-10-28T11:15:16.397Z,102512.44
2022-10-28T11:17:58.586Z,102497.00
2022-10-28T11:20:31.072Z,102503.97
2022-10-28T11:23:00.826Z,102495.13
2022-10-28T11:25:38.398Z,102498.38
2022-10-28T11:28:28.950Z,102495.53
2022-10-28T11:33:50.756Z,102495.63
2022-10-28T11:36:34.239Z,102481.91
2022-10-28T11:39:13.582Z,102487.66
2022-10-28T11:41:56.522Z,102477.56
2022-10-28T11:44:47.949Z,102477.97
2022-10-28T11:47:36.961Z,102467.63
2022-10-28T11:50:22.059Z,102461.47
2022-10-28T11:53:10.177Z,102462.13
2022-10-28T11:55:50.408Z,102456.72
2022-10-28T11:58:48.609Z,102460.59
2022-10-28T12:01:31.711Z,102462.50
2022-10-28T12:04:25.606Z,102457.06
2022-10-28T12:07:04.699Z,102451.91
2022-10-28T12:10:02.496Z,102442.81
2022-10-28T12:12:47.236Z,102435.69
2022-10-28T12:15:51.850Z,102432.81
2022-10-28T12:18:49.117Z,102435.44
2022-10-28T12:21:27.527Z,102433.91
2022-10-28T12:23:58.188Z,102425.72
2022-10-28T12:26:44.069Z,102424.09
2022-10-28T12:29:27.935Z,102424.88
2022-10-28T12:32:00.044Z,102417.22
2022-10-28T12:34:47.823Z,102410.00
2022-10-28T12:37:28.420Z,102412.16
2022-10-28T12:40:14.156Z,102409.97
2022-10-28T12:42:48.759Z,102399.94
2022-10-28T12:45:18.525Z,102402.31
2022-10-28T12:47:55.796Z,102401.38
2022-10-28T12:50:40.993Z,102389.78
2022-10-28T12:53:43.978Z,102396.91
2022-10-28T12:56:19.956Z,102395.09
2022-10-28T12:59:11.029Z,102395.13
2022-10-28T13:01:38.483Z,102397.19
2022-10-28T13:04:05.912Z,102393.81
2022-10-28T13:06:57.637Z,102400.50
2022-10-28T13:09:37.881Z,102393.00
2022-10-28T13:12:15.803Z,102393.28
2022-10-28T13:15:16.942Z,102392.72
2022-10-28T13:18:11.258Z,102390.88
2022-10-28T13:21:07.044Z,102390.56
2022-10-28T13:23:47.402Z,102383.25
2022-10-28T13:26:32.562Z,102386.72
2022-10-28T13:29:04.069Z,102386.03
2022-10-28T13:31:45.254Z,102376.19
2022-10-28T13:34:16.276Z,102379.22
2022-10-28T13:36:57.522Z,102379.63
2022-10-28T13:39:27.740Z,102369.66
2022-10-28T13:42:13.057Z,102368.63
2022-10-28T13:45:03.505Z,102364.94
2022-10-28T13:47:31.854Z,102362.03
2022-10-28T13:50:08.582Z,102367.22
2022-10-28T13:52:41.163Z,102367.66
2022-10-28T13:55:14.337Z,102372.28
2022-10-28T13:57:46.795Z,102370.44
2022-10-28T14:00:20.168Z,102362.22
2022-10-28T14:02:58.116Z,102364.44
2022-10-28T14:05:47.287Z,102371.50
2022-10-28T14:08:39.910Z,102368.63
2022-10-28T14:11:11.631Z,102371.72
2022-10-28T14:13:50.584Z,102369.91
2022-10-28T14:16:30.034Z,102370.41
2022-10-28T14:19:02.722Z,102365.53
2022-10-28T14:22:00.652Z,102369.63
2022-10-28T14:24:39.071Z,102363.13
2022-10-28T14:27:06.527Z,102373.31
2022-10-28T14:29:55.402Z,102378.91
2022-10-28T14:32:31.491Z,102374.41
2022-10-28T14:35:10.455Z,102374.28
2022-10-28T14:37:43.644Z,102371.13
2022-10-28T14:40:24.590Z,102371.47
2022-10-28T14:43:06.630Z,102381.00
2022-10-28T14:45:59.540Z,102370.97
2022-10-28T14:48:40.365Z,102376.63
2022-10-28T14:51:14.733Z,102377.47
2022-10-28T14:53:43.541Z,102382.09
2022-10-28T14:56:20.263Z,102378.34
2022-10-28T14:58:48.164Z,102376.63
2022-10-28T15:01:18.377Z,102375.38
2022-10-28T15:03:48.034Z,102376.22
2022-10-28T15:06:46.776Z,102376.47
2022-10-28T15:09:28.906Z,102374.03
2022-10-28T15:12:02.030Z,102377.78
2022-10-28T15:14:45.648Z,102373.50
2022-10-28T15:17:17.826Z,102373.13
2022-10-28T15:19:47.874Z,102378.78
2022-10-28T15:22:30.740Z,102373.44
2022-10-28T15:25:05.890Z,102381.50
2022-10-28T15:27:38.813Z,102376.25
2022-10-28T15:30:20.717Z,102372.31
2022-10-28T15:32:48.018Z,102376.94
2022-10-28T15:35:45.269Z,102384.38
2022-10-28T15:38:21.202Z,102379.34
2022-10-28T15:40:49.495Z,102384.69
2022-10-28T15:43:28.066Z,102373.88
2022-10-28T15:46:09.630Z,102367.03
2022-10-28T15:48:37.698Z,102363.09
2022-10-28T15:51:18.363Z,102375.72
2022-10-28T15:53:46.996Z,102375.13
2022-10-28T15:56:14.041Z,102380.75
2022-10-28T15:58:43.135Z,102375.69
2022-10-28T16:01:39.884Z,102379.69
2022-10-28T16:04:39.418Z,102377.69
2022-10-28T16:07:08.024Z,102377.06
2022-10-28T16:09:42.443Z,102380.50
2022-10-28T16:12:16.335Z,102375.88
2022-10-28T16:14:48.657Z,102378.25
2022-10-28T16:17:23.109Z,102373.72
2022-10-28T16:19:54.821Z,102384.09
2022-10-28T16:22:24.869Z,102377.44
2022-10-28T16:24:53.906Z,102379.66
2022-10-28T16:27:23.632Z,102384.69
2022-10-28T16:29:51.231Z,102382.25
2022-10-28T16:32:35.325Z,102386.94
2022-10-28T16:35:03.963Z,102386.06
2022-10-28T16:37:34.163Z,102389.91
2022-10-28T16:40:01.380Z,102396.75
2022-10-28T16:42:28.518Z,102396.50
2022-10-28T16:44:55.729Z,102390.47
2022-10-28T16:47:26.608Z,102389.75
2022-10-28T16:49:57.318Z,102391.66
2022-10-28T16:52:30.172Z,102398.06
2022-10-28T16:54:57.918Z,102394.72
2022-10-28T16:57:26.052Z,102386.13
2022-10-28T16:59:53.895Z,102392.56
2022-10-28T17:02:36.191Z,102397.16
2022-10-28T17:05:05.048Z,102400.13
2022-10-28T17:07:32.177Z,102398.25
2022-10-28T17:09:59.299Z,102406.84
2022-10-28T17:12:27.523Z,102400.16
2022-10-28T17:14:54.720Z,102403.50
2022-10-28T17:17:21.828Z,102400.38
2022-10-28T17:19:49.015Z,102412.50
2022-10-28T17:22:16.148Z,102411.16
2022-10-28T17:24:43.276Z,102409.25
2022-10-28T17:27:10.593Z,102413.16
2022-10-28T17:29:38.689Z,102410.00
2022-10-28T17:32:09.489Z,102409.13
2022-10-28T17:34:36.905Z,102407.31
2022-10-28T17:37:04.506Z,102405.81
2022-10-28T17:39:31.786Z,102409.78
2022-10-28T17:41:59.228Z,102405.97
2022-10-28T17:44:26.370Z,102408.91
2022-10-28T17:46:53.486Z,102417.97
2022-10-28T17:49:20.635Z,102403.91
2022-10-28T17:51:47.865Z,102406.84
2022-10-28T17:54:15.031Z,102401.50
2022-10-28T17:56:42.443Z,102408.84
2022-10-28T17:59:09.653Z,102410.94
2022-10-28T18:01:36.904Z,102407.84
2022-10-28T18:04:05.978Z,102417.06
2022-10-28T18:06:33.203Z,102417.06
2022-10-28T18:09:00.316Z,102402.69
2022-10-28T18:11:27.532Z,102409.03
2022-10-28T18:13:56.252Z,102420.69
2022-10-28T18:16:27.509Z,102410.97
2022-10-28T18:18:55.428Z,102413.63
2022-10-28T18:21:23.247Z,102406.47
2022-10-28T18:23:54.187Z,102415.63
2022-10-28T18:26:21.405Z,102412.00
2022-10-28T18:28:49.070Z,102408.75
2022-10-28T18:31:18.813Z,102424.53
2022-10-28T18:33:46.961Z,102424.78
2022-10-28T18:36:35.479Z,102428.56
2022-10-28T18:39:06.699Z,102436.13
2022-10-28T18:41:37.972Z,102435.53
2022-10-28T18:44:05.746Z,102436.81
2022-10-28T18:46:38.041Z,102428.41
2022-10-28T18:49:05.463Z,102428.22
2022-10-28T18:51:34.100Z,102422.97
2022-10-28T18:54:01.624Z,102424.94
2022-10-28T18:56:29.615Z,102425.03
2022-10-28T18:58:58.321Z,102423.59
2022-10-28T19:01:28.119Z,102426.66
2022-10-28T19:04:05.346Z,102429.72
2022-10-28T19:06:34.084Z,102431.03
2022-10-28T19:09:03.933Z,102428.56
2022-10-28T19:11:32.676Z,102432.19
2022-10-28T19:14:02.067Z,102432.41
2022-10-28T19:16:31.271Z,102433.72
2022-10-28T19:18:59.891Z,102437.63
2022-10-28T19:21:28.221Z,102434.13
2022-10-28T19:23:55.500Z,102438.06
2022-10-28T19:26:23.099Z,102431.22
2022-10-28T19:28:51.446Z,102436.72
2022-10-28T19:31:21.774Z,102439.00
2022-10-28T19:33:49.228Z,102441.94
2022-10-28T19:36:25.310Z,102436.81
2022-10-28T19:38:56.017Z,102434.63
2022-10-28T19:41:28.543Z,102430.34
2022-10-28T19:43:58.712Z,102435.50
2022-10-28T19:46:28.005Z,102437.22
2022-10-28T19:48:58.217Z,102441.53
2022-10-28T19:51:28.508Z,102445.22
2022-10-28T19:53:58.306Z,102438.38
2022-10-28T19:56:26.582Z,102438.56
2022-10-28T19:58:58.433Z,102443.00
2022-10-28T20:01:28.180Z,102432.59
2022-10-28T20:03:55.799Z,102437.13
2022-10-28T20:06:26.164Z,102446.13
2022-10-28T20:08:53.624Z,102450.63
2022-10-28T20:11:27.071Z,102453.66
2022-10-28T20:14:00.925Z,102449.28
2022-10-28T20:16:28.942Z,102448.56
2022-10-28T20:18:57.567Z,102453.25
2022-10-28T20:21:27.655Z,102451.59
2022-10-28T20:23:56.814Z,102454.41
2022-10-28T20:26:26.109Z,102461.66
2022-10-28T20:28:53.589Z,102461.75
2022-10-28T20:31:23.151Z,102467.25
2022-10-28T20:33:55.344Z,102462.00
2022-10-28T20:36:30.616Z,102453.03
2022-10-28T20:39:10.061Z,102460.09
2022-10-28T20:41:38.662Z,102460.09
2022-10-28T20:44:06.847Z,102465.50
2022-10-28T20:46:34.402Z,102460.34
2022-10-28T20:49:02.242Z,102468.47
2022-10-28T20:51:31.157Z,102474.63
2022-10-28T20:53:58.877Z,102470.47
2022-10-28T20:56:30.908Z,102475.22
2022-10-28T20:58:58.491Z,102471.66
2022-10-28T21:01:37.636Z,102469.94
2022-10-28T21:04:07.666Z,102464.50
2022-10-28T21:06:36.853Z,102463.94
2022-10-28T21:09:05.194Z,102467.44
2022-10-28T21:11:32.568Z,102465.88
2022-10-28T21:14:01.285Z,102464.59
2022-10-28T21:16:29.519Z,102475.56
2022-10-28T21:18:56.934Z,102474.50
2022-10-28T21:21:25.401Z,102473.34
2022-10-28T21:23:52.739Z,102474.53
2022-10-28T21:26:20.192Z,102471.97
2022-10-28T21:28:51.998Z,102472.84
2022-10-28T21:31:20.647Z,102476.56
2022-10-28T21:36:21.353Z,102475.06
2022-10-28T21:38:48.576Z,102476.06
2022-10-28T21:41:20.285Z,102473.88
2022-10-28T21:43:49.574Z,102470.44
2022-10-28T21:46:18.079Z,102471.31
2022-10-28T21:48:45.489Z,102472.56
2022-10-28T21:51:15.125Z,102474.59
2022-10-28T21:53:44.371Z,102475.66
2022-10-28T21:56:18.575Z,102478.44
2022-10-28T21:58:50.676Z,102474.94
2022-10-28T22:01:20.713Z,102472.38
2022-10-28T22:03:49.054Z,102470.06
2022-10-28T22:06:16.278Z,102469.06
2022-10-28T22:08:43.400Z,102469.88
2022-10-28T22:11:18.108Z,102469.06
2022-10-28T22:13:45.827Z,102466.63
2022-10-28T22:16:15.427Z,102463.91
2022-10-28T22:18:43.016Z,102472.06
2022-10-28T22:21:21.857Z,102474.88
2022-10-28T22:23:50.164Z,102478.66
2022-10-28T22:26:20.257Z,102477.88
2022-10-28T22:28:48.059Z,102471.63
2022-10-28T22:31:18.301Z,102475.06
2022-10-28T22:36:16.464Z,102461.13
2022-10-28T22:38:44.387Z,102458.72
2022-10-28T22:41:13.753Z,102457.81
2022-10-28T22:43:42.737Z,102470.16
2022-10-28T22:46:10.977Z,102461.66
2022-10-28T22:48:38.386Z,102457.72
2022-10-28T22:51:05.715Z,102457.91
2022-10-28T22:53:32.843Z,102456.16
2022-10-28T22:56:00.016Z,102466.03
2022-10-28T22:58:27.779Z,102470.63
2022-10-28T23:01:04.862Z,102459.84
2022-10-28T23:03:43.344Z,102459.13
2022-10-28T23:06:11.840Z,102459.22
2022-10-28T23:08:40.408Z,102461.06
2022-10-28T23:11:09.113Z,102463.78
2022-10-28T23:16:10.281Z,102465.31
2022-10-28T23:18:38.100Z,102461.78
2022-10-28T23:21:07.426Z,102457.63
2022-10-28T23:23:34.505Z,102451.88
2022-10-28T23:26:02.030Z,102452.06
2022-10-28T23:28:29.313Z,102452.38
2022-10-28T23:31:03.929Z,102454.19
2022-10-28T23:33:32.565Z,102453.38
2022-10-28T23:36:02.132Z,102452.63
2022-10-28T23:38:29.838Z,102449.13
2022-10-28T23:41:01.134Z,102454.22
2022-10-28T23:43:29.651Z,102451.81
2022-10-28T23:45:57.643Z,102460.66
2022-10-28T23:48:26.613Z,102454.47
2022-10-28T23:50:54.284Z,102456.34
2022-10-28T23:53:22.709Z,102453.75
2022-10-28T23:55:50.888Z,102456.44
2022-10-28T23:58:19.578Z,102458.38
